sensor_id;sensor_type;location;lat;lon;timestamp;temperature;humidity
33717;DHT22;20046;50.746;7.072;2022-10-31T00:01:19;12.00;99.90
33717;DHT22;20046;50.746;7.072;2022-10-31T00:03:45;12.00;99.90
33717;DHT22;20046;50.746;7.072;2022-10-31T00:06:11;12.00;99.90
33717;DHT22;20046;50.746;7.072;2022-10-31T00:08:37;11.90;99.90
33717;DHT22;20046;50.746;7.072;2022-10-31T00:11:03;11.90;99.90
33717;DHT22;20046;50.746;7.072;2022-10-31T00:13:28;11.90;99.90
33717;DHT22;20046;50.746;7.072;2022-10-31T00:15:54;11.90;99.90
33717;DHT22;20046;50.746;7.072;2022-10-31T00:18:20;11.90;99.90
33717;DHT22;20046;50.746;7.072;2022-10-31T00:20:57;11.90;99.90
33717;DHT22;20046;50.746;7.072;2022-10-31T00:23:23;11.80;99.90
33717;DHT22;20046;50.746;7.072;2022-10-31T00:25:48;11.80;99.90
33717;DHT22;20046;50.746;7.072;2022-10-31T00:28:14;11.80;99.90
33717;DHT22;20046;50.746;7.072;2022-10-31T00:30:40;11.80;99.90
33717;DHT22;20046;50.746;7.072;2022-10-31T00:33:05;11.80;99.90
33717;DHT22;20046;50.746;7.072;2022-10-31T00:35:31;11.80;99.90
33717;DHT22;20046;50.746;7.072;2022-10-31T00:37:57;11.80;99.90
33717;DHT22;20046;50.746;7.072;2022-10-31T00:40:23;11.90;99.90
33717;DHT22;20046;50.746;7.072;2022-10-31T00:42:48;11.90;99.90
33717;DHT22;20046;50.746;7.072;2022-10-31T00:45:14;11.80;99.90
33717;DHT22;20046;50.746;7.072;2022-10-31T00:47:40;11.80;99.90
33717;DHT22;20046;50.746;7.072;2022-10-31T00:50:06;11.80;99.90
33717;DHT22;20046;50.746;7.072;2022-10-31T00:52:32;11.90;99.90
33717;DHT22;20046;50.746;7.072;2022-10-31T00:54:58;11.90;99.90
33717;DHT22;20046;50.746;7.072;2022-10-31T00:57:23;11.90;99.90
33717;DHT22;20046;50.746;7.072;2022-10-31T00:59:49;11.90;99.90
33717;DHT22;20046;50.746;7.072;2022-10-31T01:02:15;11.80;99.90
33717;DHT22;20046;50.746;7.072;2022-10-31T01:04:40;11.80;99.90
33717;DHT22;20046;50.746;7.072;2022-10-31T01:07:06;11.70;99.90
33717;DHT22;20046;50.746;7.072;2022-10-31T01:09:32;11.70;99.90
33717;DHT22;20046;50.746;7.072;2022-10-31T01:11:57;11.70;99.90
33717;DHT22;20046;50.746;7.072;2022-10-31T01:14:23;11.70;99.90
33717;DHT22;20046;50.746;7.072;2022-10-31T01:16:49;11.70;99.90
33717;DHT22;20046;50.746;7.072;2022-10-31T01:19:14;11.70;99.90
33717;DHT22;20046;50.746;7.072;2022-10-31T01:21:40;11.60;99.90
33717;DHT22;20046;50.746;7.072;2022-10-31T01:24:06;11.70;99.90
33717;DHT22;20046;50.746;7.072;2022-10-31T01:26:32;11.70;99.90
33717;DHT22;20046;50.746;7.072;2022-10-31T01:29:01;11.70;99.90
33717;DHT22;20046;50.746;7.072;2022-10-31T01:31:29;11.70;99.90
33717;DHT22;20046;50.746;7.072;2022-10-31T01:33:55;11.70;99.90
33717;DHT22;20046;50.746;7.072;2022-10-31T01:36:29;11.70;99.90
33717;DHT22;20046;50.746;7.072;2022-10-31T01:39:00;11.70;99.90
33717;DHT22;20046;50.746;7.072;2022-10-31T01:41:29;11.70;99.90
33717;DHT22;20046;50.746;7.072;2022-10-31T01:44:43;11.70;99.90
33717;DHT22;20046;50.746;7.072;2022-10-31T01:46:56;11.70;99.90
33717;DHT22;20046;50.746;7.072;2022-10-31T01:49:46;11.70;99.90
33717;DHT22;20046;50.746;7.072;2022-10-31T01:52:30;11.60;99.90
33717;DHT22;20046;50.746;7.072;2022-10-31T01:55:01;11.60;99.90
33717;DHT22;20046;50.746;7.072;2022-10-31T01:57:29;11.60;99.90
33717;DHT22;20046;50.746;7.072;2022-10-31T01:59:59;11.70;99.90
33717;DHT22;20046;50.746;7.072;2022-10-31T02:02:27;11.60;99.90
33717;DHT22;20046;50.746;7.072;2022-10-31T02:04:56;11.70;99.90
33717;DHT22;20046;50.746;7.072;2022-10-31T02:07:27;11.70;99.90
33717;DHT22;20046;50.746;7.072;2022-10-31T02:09:56;11.60;99.90
33717;DHT22;20046;50.746;7.072;2022-10-31T02:12:23;11.60;99.90
33717;DHT22;20046;50.746;7.072;2022-10-31T02:14:50;11.70;99.90
33717;DHT22;20046;50.746;7.072;2022-10-31T02:17:16;11.70;99.90
33717;DHT22;20046;50.746;7.072;2022-10-31T02:22:28;11.80;99.90
33717;DHT22;20046;50.746;7.072;2022-10-31T02:31:05;11.80;99.90
33717;DHT22;20046;50.746;7.072;2022-10-31T02:33:59;11.80;99.90
33717;DHT22;20046;50.746;7.072;2022-10-31T02:42:16;11.70;99.90
33717;DHT22;20046;50.746;7.072;2022-10-31T02:45:19;11.70;99.90
33717;DHT22;20046;50.746;7.072;2022-10-31T02:47:48;11.70;99.90
33717;DHT22;20046;50.746;7.072;2022-10-31T02:50:22;11.70;99.90
33717;DHT22;20046;50.746;7.072;2022-10-31T02:52:52;11.60;99.90
33717;DHT22;20046;50.746;7.072;2022-10-31T02:58:17;11.50;99.90
33717;DHT22;20046;50.746;7.072;2022-10-31T03:09:12;11.60;99.90
33717;DHT22;20046;50.746;7.072;2022-10-31T03:17:05;11.50;99.90
33717;DHT22;20046;50.746;7.072;2022-10-31T03:19:39;11.50;99.90
33717;DHT22;20046;50.746;7.072;2022-10-31T03:22:22;11.50;99.90
33717;DHT22;20046;50.746;7.072;2022-10-31T03:24:48;11.60;99.90
33717;DHT22;20046;50.746;7.072;2022-10-31T03:27:20;11.60;99.90
33717;DHT22;20046;50.746;7.072;2022-10-31T03:29:47;11.60;99.90
33717;DHT22;20046;50.746;7.072;2022-10-31T03:32:25;11.60;99.90
33717;DHT22;20046;50.746;7.072;2022-10-31T03:34:54;11.60;99.90
33717;DHT22;20046;50.746;7.072;2022-10-31T03:37:22;11.60;99.90
33717;DHT22;20046;50.746;7.072;2022-10-31T03:39:49;11.60;99.90
33717;DHT22;20046;50.746;7.072;2022-10-31T03:42:27;11.50;99.90
33717;DHT22;20046;50.746;7.072;2022-10-31T03:45:02;11.60;99.90
33717;DHT22;20046;50.746;7.072;2022-10-31T03:47:29;11.60;99.90
33717;DHT22;20046;50.746;7.072;2022-10-31T03:49:55;11.60;99.90
33717;DHT22;20046;50.746;7.072;2022-10-31T03:55:12;11.50;99.90
33717;DHT22;20046;50.746;7.072;2022-10-31T04:00:19;11.50;99.90
33717;DHT22;20046;50.746;7.072;2022-10-31T04:02:50;11.50;99.90
33717;DHT22;20046;50.746;7.072;2022-10-31T04:05:17;11.50;99.90
33717;DHT22;20046;50.746;7.072;2022-10-31T04:07:47;11.50;99.90
33717;DHT22;20046;50.746;7.072;2022-10-31T04:10:15;11.50;99.90
33717;DHT22;20046;50.746;7.072;2022-10-31T04:12:44;11.50;99.90
33717;DHT22;20046;50.746;7.072;2022-10-31T04:15:13;11.50;99.90
33717;DHT22;20046;50.746;7.072;2022-10-31T04:17:41;11.40;99.90
33717;DHT22;20046;50.746;7.072;2022-10-31T04:20:09;11.40;99.90
33717;DHT22;20046;50.746;7.072;2022-10-31T04:22:35;11.40;99.90
33717;DHT22;20046;50.746;7.072;2022-10-31T04:25:01;11.40;99.90
33717;DHT22;20046;50.746;7.072;2022-10-31T04:27:26;11.40;99.90
33717;DHT22;20046;50.746;7.072;2022-10-31T04:29:52;11.40;99.90
33717;DHT22;20046;50.746;7.072;2022-10-31T04:32:18;11.40;99.90
33717;DHT22;20046;50.746;7.072;2022-10-31T04:34:43;11.30;99.90
33717;DHT22;20046;50.746;7.072;2022-10-31T04:37:09;11.30;99.90
33717;DHT22;20046;50.746;7.072;2022-10-31T04:39:35;11.30;99.90
33717;DHT22;20046;50.746;7.072;2022-10-31T04:42:00;11.30;99.90
33717;DHT22;20046;50.746;7.072;2022-10-31T04:44:26;11.20;99.90
33717;DHT22;20046;50.746;7.072;2022-10-31T04:46:51;11.20;99.90
33717;DHT22;20046;50.746;7.072;2022-10-31T04:49:17;11.20;99.90
33717;DHT22;20046;50.746;7.072;2022-10-31T04:51:43;11.20;99.90
33717;DHT22;20046;50.746;7.072;2022-10-31T04:54:08;11.20;99.90
33717;DHT22;20046;50.746;7.072;2022-10-31T04:56:34;11.20;99.90
33717;DHT22;20046;50.746;7.072;2022-10-31T04:59:00;11.20;99.90
33717;DHT22;20046;50.746;7.072;2022-10-31T05:01:25;11.20;99.90
33717;DHT22;20046;50.746;7.072;2022-10-31T05:03:51;11.20;99.90
33717;DHT22;20046;50.746;7.072;2022-10-31T05:06:17;11.10;99.90
33717;DHT22;20046;50.746;7.072;2022-10-31T05:08:42;11.10;99.90
33717;DHT22;20046;50.746;7.072;2022-10-31T05:11:08;11.10;99.90
33717;DHT22;20046;50.746;7.072;2022-10-31T05:13:34;11.10;99.90
33717;DHT22;20046;50.746;7.072;2022-10-31T05:15:59;11.00;99.90
33717;DHT22;20046;50.746;7.072;2022-10-31T05:18:25;11.00;99.90
33717;DHT22;20046;50.746;7.072;2022-10-31T05:20:50;11.00;99.90
33717;DHT22;20046;50.746;7.072;2022-10-31T05:23:16;10.90;99.90
33717;DHT22;20046;50.746;7.072;2022-10-31T05:25:42;10.90;99.90
33717;DHT22;20046;50.746;7.072;2022-10-31T05:28:07;10.90;99.90
33717;DHT22;20046;50.746;7.072;2022-10-31T05:30:34;10.80;99.90
33717;DHT22;20046;50.746;7.072;2022-10-31T05:33:00;10.80;99.90
33717;DHT22;20046;50.746;7.072;2022-10-31T05:35:29;10.70;99.90
33717;DHT22;20046;50.746;7.072;2022-10-31T05:37:56;10.70;99.90
33717;DHT22;20046;50.746;7.072;2022-10-31T05:40:23;10.70;99.90
33717;DHT22;20046;50.746;7.072;2022-10-31T05:42:51;10.70;99.90
33717;DHT22;20046;50.746;7.072;2022-10-31T05:45:18;10.60;99.90
33717;DHT22;20046;50.746;7.072;2022-10-31T05:50:17;10.60;99.90
33717;DHT22;20046;50.746;7.072;2022-10-31T05:52:43;10.50;99.90
33717;DHT22;20046;50.746;7.072;2022-10-31T05:55:08;10.50;99.90
33717;DHT22;20046;50.746;7.072;2022-10-31T05:57:34;10.50;99.90
33717;DHT22;20046;50.746;7.072;2022-10-31T06:00:00;10.40;99.90
33717;DHT22;20046;50.746;7.072;2022-10-31T06:02:25;10.50;99.90
33717;DHT22;20046;50.746;7.072;2022-10-31T06:04:52;10.50;99.90
33717;DHT22;20046;50.746;7.072;2022-10-31T06:07:18;10.40;99.90
33717;DHT22;20046;50.746;7.072;2022-10-31T06:09:43;10.40;99.90
33717;DHT22;20046;50.746;7.072;2022-10-31T06:12:09;10.50;99.90
33717;DHT22;20046;50.746;7.072;2022-10-31T06:14:34;10.50;99.90
33717;DHT22;20046;50.746;7.072;2022-10-31T06:17:00;10.50;99.90
33717;DHT22;20046;50.746;7.072;2022-10-31T06:19:26;10.60;99.90
33717;DHT22;20046;50.746;7.072;2022-10-31T06:21:51;10.60;99.90
33717;DHT22;20046;50.746;7.072;2022-10-31T06:24:17;10.60;99.90
33717;DHT22;20046;50.746;7.072;2022-10-31T06:26:43;10.70;99.90
33717;DHT22;20046;50.746;7.072;2022-10-31T06:29:08;10.70;99.90
33717;DHT22;20046;50.746;7.072;2022-10-31T06:31:34;10.70;99.90
33717;DHT22;20046;50.746;7.072;2022-10-31T06:33:59;10.70;99.90
33717;DHT22;20046;50.746;7.072;2022-10-31T06:36:25;10.70;99.90
33717;DHT22;20046;50.746;7.072;2022-10-31T06:38:51;10.70;99.90
33717;DHT22;20046;50.746;7.072;2022-10-31T06:41:16;10.70;99.90
33717;DHT22;20046;50.746;7.072;2022-10-31T06:43:42;10.70;99.90
33717;DHT22;20046;50.746;7.072;2022-10-31T06:46:08;10.80;99.90
33717;DHT22;20046;50.746;7.072;2022-10-31T06:48:33;10.80;99.90
33717;DHT22;20046;50.746;7.072;2022-10-31T06:51:00;10.90;99.90
33717;DHT22;20046;50.746;7.072;2022-10-31T06:53:29;10.90;99.90
33717;DHT22;20046;50.746;7.072;2022-10-31T06:55:57;11.00;99.90
33717;DHT22;20046;50.746;7.072;2022-10-31T06:58:23;11.10;99.90
33717;DHT22;20046;50.746;7.072;2022-10-31T07:00:49;11.20;99.90
33717;DHT22;20046;50.746;7.072;2022-10-31T07:03:15;11.30;99.90
33717;DHT22;20046;50.746;7.072;2022-10-31T07:05:41;11.40;99.90
33717;DHT22;20046;50.746;7.072;2022-10-31T07:08:10;11.50;99.90
33717;DHT22;20046;50.746;7.072;2022-10-31T07:10:37;11.40;99.90
33717;DHT22;20046;50.746;7.072;2022-10-31T07:13:06;11.50;99.90
33717;DHT22;20046;50.746;7.072;2022-10-31T07:15:37;11.60;99.90
33717;DHT22;20046;50.746;7.072;2022-10-31T07:18:05;11.60;99.90
33717;DHT22;20046;50.746;7.072;2022-10-31T07:20:32;11.70;99.90
33717;DHT22;20046;50.746;7.072;2022-10-31T07:22:58;11.70;99.90
33717;DHT22;20046;50.746;7.072;2022-10-31T07:25:24;11.80;99.90
33717;DHT22;20046;50.746;7.072;2022-10-31T07:27:50;11.90;99.90
33717;DHT22;20046;50.746;7.072;2022-10-31T07:30:16;12.00;99.90
33717;DHT22;20046;50.746;7.072;2022-10-31T07:32:46;12.10;99.90
33717;DHT22;20046;50.746;7.072;2022-10-31T07:35:19;12.10;99.90
33717;DHT22;20046;50.746;7.072;2022-10-31T07:37:46;12.20;99.90
33717;DHT22;20046;50.746;7.072;2022-10-31T07:40:12;12.20;99.90
33717;DHT22;20046;50.746;7.072;2022-10-31T07:42:39;12.20;99.90
33717;DHT22;20046;50.746;7.072;2022-10-31T07:45:08;12.30;99.90
33717;DHT22;20046;50.746;7.072;2022-10-31T07:47:45;12.40;99.90
33717;DHT22;20046;50.746;7.072;2022-10-31T07:50:13;12.40;99.90
33717;DHT22;20046;50.746;7.072;2022-10-31T07:52:39;12.50;99.90
33717;DHT22;20046;50.746;7.072;2022-10-31T07:55:06;12.60;99.90
33717;DHT22;20046;50.746;7.072;2022-10-31T07:57:32;12.70;99.90
33717;DHT22;20046;50.746;7.072;2022-10-31T07:59:57;12.80;99.90
33717;DHT22;20046;50.746;7.072;2022-10-31T08:02:24;12.80;99.90
33717;DHT22;20046;50.746;7.072;2022-10-31T08:04:50;12.80;99.90
33717;DHT22;20046;50.746;7.072;2022-10-31T08:07:15;12.80;99.90
33717;DHT22;20046;50.746;7.072;2022-10-31T08:09:41;13.00;99.90
33717;DHT22;20046;50.746;7.072;2022-10-31T08:12:07;13.10;99.90
33717;DHT22;20046;50.746;7.072;2022-10-31T08:14:33;13.10;99.90
33717;DHT22;20046;50.746;7.072;2022-10-31T08:16:58;13.20;99.90
33717;DHT22;20046;50.746;7.072;2022-10-31T08:19:24;13.20;99.90
33717;DHT22;20046;50.746;7.072;2022-10-31T08:21:53;13.30;99.90
33717;DHT22;20046;50.746;7.072;2022-10-31T08:24:22;13.30;99.90
33717;DHT22;20046;50.746;7.072;2022-10-31T08:26:47;13.40;99.90
33717;DHT22;20046;50.746;7.072;2022-10-31T08:29:13;13.40;99.90
33717;DHT22;20046;50.746;7.072;2022-10-31T08:31:40;13.50;99.90
33717;DHT22;20046;50.746;7.072;2022-10-31T08:34:05;13.50;99.90
33717;DHT22;20046;50.746;7.072;2022-10-31T08:36:31;13.60;99.90
33717;DHT22;20046;50.746;7.072;2022-10-31T08:38:57;13.60;99.90
33717;DHT22;20046;50.746;7.072;2022-10-31T08:41:23;13.70;99.90
33717;DHT22;20046;50.746;7.072;2022-10-31T08:43:49;13.70;99.90
33717;DHT22;20046;50.746;7.072;2022-10-31T08:46:15;13.80;99.90
33717;DHT22;20046;50.746;7.072;2022-10-31T08:48:40;13.90;99.90
33717;DHT22;20046;50.746;7.072;2022-10-31T08:51:06;13.90;99.90
33717;DHT22;20046;50.746;7.072;2022-10-31T08:53:32;14.00;99.90
33717;DHT22;20046;50.746;7.072;2022-10-31T08:55:58;13.90;99.90
33717;DHT22;20046;50.746;7.072;2022-10-31T08:58:24;14.00;99.90
33717;DHT22;20046;50.746;7.072;2022-10-31T09:00:52;14.10;99.90
33717;DHT22;20046;50.746;7.072;2022-10-31T09:03:24;14.10;99.90
33717;DHT22;20046;50.746;7.072;2022-10-31T09:05:50;14.10;99.90
33717;DHT22;20046;50.746;7.072;2022-10-31T09:08:17;14.20;99.90
33717;DHT22;20046;50.746;7.072;2022-10-31T09:10:43;14.30;99.90
33717;DHT22;20046;50.746;7.072;2022-10-31T09:13:15;14.40;99.90
33717;DHT22;20046;50.746;7.072;2022-10-31T09:15:43;14.50;99.90
33717;DHT22;20046;50.746;7.072;2022-10-31T09:18:10;14.60;99.90
33717;DHT22;20046;50.746;7.072;2022-10-31T09:20:37;14.80;99.90
33717;DHT22;20046;50.746;7.072;2022-10-31T09:23:12;15.10;99.90
33717;DHT22;20046;50.746;7.072;2022-10-31T09:25:39;15.30;99.90
33717;DHT22;20046;50.746;7.072;2022-10-31T09:28:06;15.40;99.90
33717;DHT22;20046;50.746;7.072;2022-10-31T09:30:33;15.40;99.90
33717;DHT22;20046;50.746;7.072;2022-10-31T09:33:02;15.40;99.90
33717;DHT22;20046;50.746;7.072;2022-10-31T09:35:28;15.50;99.90
33717;DHT22;20046;50.746;7.072;2022-10-31T09:38:01;15.60;99.90
33717;DHT22;20046;50.746;7.072;2022-10-31T09:40:44;15.70;99.90
33717;DHT22;20046;50.746;7.072;2022-10-31T09:45:41;16.00;99.90
33717;DHT22;20046;50.746;7.072;2022-10-31T09:48:42;16.10;99.90
33717;DHT22;20046;50.746;7.072;2022-10-31T09:51:12;16.00;99.90
33717;DHT22;20046;50.746;7.072;2022-10-31T09:53:56;15.90;99.90
33717;DHT22;20046;50.746;7.072;2022-10-31T09:56:25;15.70;99.90
33717;DHT22;20046;50.746;7.072;2022-10-31T09:58:55;15.80;99.90
33717;DHT22;20046;50.746;7.072;2022-10-31T10:04:03;15.70;99.90
33717;DHT22;20046;50.746;7.072;2022-10-31T10:06:34;15.80;99.90
33717;DHT22;20046;50.746;7.072;2022-10-31T10:09:01;15.70;99.90
33717;DHT22;20046;50.746;7.072;2022-10-31T10:17:27;15.90;99.90
33717;DHT22;20046;50.746;7.072;2022-10-31T10:25:21;16.00;99.90
33717;DHT22;20046;50.746;7.072;2022-10-31T10:33:24;16.40;99.90
33717;DHT22;20046;50.746;7.072;2022-10-31T10:35:57;16.50;99.90
33717;DHT22;20046;50.746;7.072;2022-10-31T10:41:16;16.50;99.90
33717;DHT22;20046;50.746;7.072;2022-10-31T10:43:43;16.70;99.90
33717;DHT22;20046;50.746;7.072;2022-10-31T10:46:18;16.90;99.90
33717;DHT22;20046;50.746;7.072;2022-10-31T10:51:59;17.30;99.90
33717;DHT22;20046;50.746;7.072;2022-10-31T10:55:09;17.20;99.90
33717;DHT22;20046;50.746;7.072;2022-10-31T10:57:38;17.30;99.90
33717;DHT22;20046;50.746;7.072;2022-10-31T11:00:26;17.40;99.90
33717;DHT22;20046;50.746;7.072;2022-10-31T11:02:53;17.40;99.90
33717;DHT22;20046;50.746;7.072;2022-10-31T11:05:48;17.50;99.90
33717;DHT22;20046;50.746;7.072;2022-10-31T11:08:28;17.50;99.90
33717;DHT22;20046;50.746;7.072;2022-10-31T11:11:04;17.80;99.90
33717;DHT22;20046;50.746;7.072;2022-10-31T11:13:31;17.80;99.90
33717;DHT22;20046;50.746;7.072;2022-10-31T11:16:07;17.90;99.90
33717;DHT22;20046;50.746;7.072;2022-10-31T11:18:37;17.90;99.90
33717;DHT22;20046;50.746;7.072;2022-10-31T11:21:04;17.90;99.90
33717;DHT22;20046;50.746;7.072;2022-10-31T11:23:31;17.90;99.90
33717;DHT22;20046;50.746;7.072;2022-10-31T11:28:29;17.90;99.90
33717;DHT22;20046;50.746;7.072;2022-10-31T11:31:21;18.00;99.90
33717;DHT22;20046;50.746;7.072;2022-10-31T11:33:49;18.10;99.90
33717;DHT22;20046;50.746;7.072;2022-10-31T11:36:24;18.20;99.90
33717;DHT22;20046;50.746;7.072;2022-10-31T11:38:51;18.20;99.90
33717;DHT22;20046;50.746;7.072;2022-10-31T11:43:53;18.40;99.90
33717;DHT22;20046;50.746;7.072;2022-10-31T11:46:52;18.40;99.90
33717;DHT22;20046;50.746;7.072;2022-10-31T11:51:57;18.30;99.90
33717;DHT22;20046;50.746;7.072;2022-10-31T11:56:52;18.50;99.90
33717;DHT22;20046;50.746;7.072;2022-10-31T11:59:31;18.50;99.90
33717;DHT22;20046;50.746;7.072;2022-10-31T12:01:59;18.70;99.90
33717;DHT22;20046;50.746;7.072;2022-10-31T12:06:58;19.10;99.90
33717;DHT22;20046;50.746;7.072;2022-10-31T12:09:29;19.30;99.90
33717;DHT22;20046;50.746;7.072;2022-10-31T12:14:49;19.70;99.90
33717;DHT22;20046;50.746;7.072;2022-10-31T12:17:38;20.10;99.90
33717;DHT22;20046;50.746;7.072;2022-10-31T12:22:41;20.40;99.90
33717;DHT22;20046;50.746;7.072;2022-10-31T12:30:58;20.60;99.90
33717;DHT22;20046;50.746;7.072;2022-10-31T12:41:14;19.50;99.90
33717;DHT22;20046;50.746;7.072;2022-10-31T12:43:57;19.40;99.90
33717;DHT22;20046;50.746;7.072;2022-10-31T12:51:51;18.70;99.90
33717;DHT22;20046;50.746;7.072;2022-10-31T12:57:29;18.50;99.90
33717;DHT22;20046;50.746;7.072;2022-10-31T12:59:57;18.30;99.90
33717;DHT22;20046;50.746;7.072;2022-10-31T13:05:39;18.20;99.90
33717;DHT22;20046;50.746;7.072;2022-10-31T13:10:43;18.20;99.90
33717;DHT22;20046;50.746;7.072;2022-10-31T13:13:20;18.20;99.90
33717;DHT22;20046;50.746;7.072;2022-10-31T13:15:58;18.20;99.90
33717;DHT22;20046;50.746;7.072;2022-10-31T13:18:35;18.30;99.90
33717;DHT22;20046;50.746;7.072;2022-10-31T13:21:09;18.40;99.90
33717;DHT22;20046;50.746;7.072;2022-10-31T13:23:38;18.50;99.90
33717;DHT22;20046;50.746;7.072;2022-10-31T13:26:12;18.60;99.90
33717;DHT22;20046;50.746;7.072;2022-10-31T13:28:46;18.60;99.90
33717;DHT22;20046;50.746;7.072;2022-10-31T13:31:13;18.60;99.90
33717;DHT22;20046;50.746;7.072;2022-10-31T13:33:53;18.70;99.90
33717;DHT22;20046;50.746;7.072;2022-10-31T13:36:42;18.70;99.90
33717;DHT22;20046;50.746;7.072;2022-10-31T13:39:43;18.60;99.90
33717;DHT22;20046;50.746;7.072;2022-10-31T13:44:36;18.50;99.90
33717;DHT22;20046;50.746;7.072;2022-10-31T13:47:27;18.30;99.90
33717;DHT22;20046;50.746;7.072;2022-10-31T13:50:19;18.20;99.90
33717;DHT22;20046;50.746;7.072;2022-10-31T13:52:45;18.20;99.90
33717;DHT22;20046;50.746;7.072;2022-10-31T14:00:44;18.00;99.90
33717;DHT22;20046;50.746;7.072;2022-10-31T14:03:19;17.90;99.90
33717;DHT22;20046;50.746;7.072;2022-10-31T14:05:52;17.90;99.90
33717;DHT22;20046;50.746;7.072;2022-10-31T14:08:21;17.90;99.90
33717;DHT22;20046;50.746;7.072;2022-10-31T14:10:50;17.90;99.90
33717;DHT22;20046;50.746;7.072;2022-10-31T14:15:53;17.90;99.90
33717;DHT22;20046;50.746;7.072;2022-10-31T14:18:31;18.00;99.90
33717;DHT22;20046;50.746;7.072;2022-10-31T14:20:57;18.00;99.90
33717;DHT22;20046;50.746;7.072;2022-10-31T14:23:38;18.00;99.90
33717;DHT22;20046;50.746;7.072;2022-10-31T14:26:30;18.00;99.90
33717;DHT22;20046;50.746;7.072;2022-10-31T14:29:20;18.00;99.90
33717;DHT22;20046;50.746;7.072;2022-10-31T14:34:32;18.00;99.90
33717;DHT22;20046;50.746;7.072;2022-10-31T14:51:14;17.90;99.90
33717;DHT22;20046;50.746;7.072;2022-10-31T14:53:48;18.00;99.90
33717;DHT22;20046;50.746;7.072;2022-10-31T14:56:23;18.00;99.90
33717;DHT22;20046;50.746;7.072;2022-10-31T14:58:50;18.00;99.90
33717;DHT22;20046;50.746;7.072;2022-10-31T15:01:27;18.00;99.90
33717;DHT22;20046;50.746;7.072;2022-10-31T15:03:58;18.00;99.90
33717;DHT22;20046;50.746;7.072;2022-10-31T15:06:26;18.00;99.90
33717;DHT22;20046;50.746;7.072;2022-10-31T15:08:55;18.00;99.90
33717;DHT22;20046;50.746;7.072;2022-10-31T15:11:26;18.00;99.90
33717;DHT22;20046;50.746;7.072;2022-10-31T15:13:56;18.00;99.90
33717;DHT22;20046;50.746;7.072;2022-10-31T15:16:24;18.00;99.90
33717;DHT22;20046;50.746;7.072;2022-10-31T15:19:03;18.00;99.90
33717;DHT22;20046;50.746;7.072;2022-10-31T15:21:30;18.00;99.90
33717;DHT22;20046;50.746;7.072;2022-10-31T15:24:01;18.00;99.90
33717;DHT22;20046;50.746;7.072;2022-10-31T15:26:31;18.00;99.90
33717;DHT22;20046;50.746;7.072;2022-10-31T15:29:11;17.90;99.90
33717;DHT22;20046;50.746;7.072;2022-10-31T15:31:37;17.90;99.90
33717;DHT22;20046;50.746;7.072;2022-10-31T15:34:07;17.90;99.90
33717;DHT22;20046;50.746;7.072;2022-10-31T15:36:39;17.80;99.90
33717;DHT22;20046;50.746;7.072;2022-10-31T15:39:04;17.80;99.90
33717;DHT22;20046;50.746;7.072;2022-10-31T15:44:04;17.80;99.90
33717;DHT22;20046;50.746;7.072;2022-10-31T15:46:32;17.80;99.90
33717;DHT22;20046;50.746;7.072;2022-10-31T15:48:59;17.70;99.90
33717;DHT22;20046;50.746;7.072;2022-10-31T15:51:27;17.70;99.90
33717;DHT22;20046;50.746;7.072;2022-10-31T15:53:54;17.60;99.90
33717;DHT22;20046;50.746;7.072;2022-10-31T15:56:22;17.50;99.90
33717;DHT22;20046;50.746;7.072;2022-10-31T15:58:51;17.50;99.90
33717;DHT22;20046;50.746;7.072;2022-10-31T16:01:31;17.50;99.90
33717;DHT22;20046;50.746;7.072;2022-10-31T16:06:35;17.30;99.90
33717;DHT22;20046;50.746;7.072;2022-10-31T16:09:02;17.20;99.90
33717;DHT22;20046;50.746;7.072;2022-10-31T16:11:35;17.20;99.90
33717;DHT22;20046;50.746;7.072;2022-10-31T16:14:15;17.20;99.90
33717;DHT22;20046;50.746;7.072;2022-10-31T16:16:47;17.10;99.90
33717;DHT22;20046;50.746;7.072;2022-10-31T16:19:35;17.10;99.90
33717;DHT22;20046;50.746;7.072;2022-10-31T16:22:13;17.10;99.90
33717;DHT22;20046;50.746;7.072;2022-10-31T16:27:22;17.20;99.90
33717;DHT22;20046;50.746;7.072;2022-10-31T16:29:51;17.20;99.90
33717;DHT22;20046;50.746;7.072;2022-10-31T16:32:33;17.20;99.90
33717;DHT22;20046;50.746;7.072;2022-10-31T16:35:00;17.20;99.90
33717;DHT22;20046;50.746;7.072;2022-10-31T16:37:26;17.20;99.90
33717;DHT22;20046;50.746;7.072;2022-10-31T16:39:52;17.10;99.90
33717;DHT22;20046;50.746;7.072;2022-10-31T16:42:17;17.10;99.90
33717;DHT22;20046;50.746;7.072;2022-10-31T16:44:44;17.10;99.90
33717;DHT22;20046;50.746;7.072;2022-10-31T16:47:16;17.10;99.90
33717;DHT22;20046;50.746;7.072;2022-10-31T16:49:43;17.10;99.90
33717;DHT22;20046;50.746;7.072;2022-10-31T16:52:09;17.00;99.90
33717;DHT22;20046;50.746;7.072;2022-10-31T16:54:35;17.00;99.90
33717;DHT22;20046;50.746;7.072;2022-10-31T16:57:02;17.00;99.90
33717;DHT22;20046;50.746;7.072;2022-10-31T16:59:29;17.00;99.90
33717;DHT22;20046;50.746;7.072;2022-10-31T17:01:55;16.90;99.90
33717;DHT22;20046;50.746;7.072;2022-10-31T17:04:21;16.90;99.90
33717;DHT22;20046;50.746;7.072;2022-10-31T17:06:47;16.80;99.90
33717;DHT22;20046;50.746;7.072;2022-10-31T17:09:12;16.80;99.90
33717;DHT22;20046;50.746;7.072;2022-10-31T17:11:46;16.70;99.90
33717;DHT22;20046;50.746;7.072;2022-10-31T17:14:13;16.60;99.90
33717;DHT22;20046;50.746;7.072;2022-10-31T17:16:39;16.60;99.90
33717;DHT22;20046;50.746;7.072;2022-10-31T17:19:04;16.60;99.90
33717;DHT22;20046;50.746;7.072;2022-10-31T17:21:30;16.50;99.90
33717;DHT22;20046;50.746;7.072;2022-10-31T17:23:56;16.50;99.90
33717;DHT22;20046;50.746;7.072;2022-10-31T17:26:21;16.60;99.90
33717;DHT22;20046;50.746;7.072;2022-10-31T17:28:47;16.60;99.90
33717;DHT22;20046;50.746;7.072;2022-10-31T17:31:21;16.60;99.90
33717;DHT22;20046;50.746;7.072;2022-10-31T17:33:47;16.60;99.90
33717;DHT22;20046;50.746;7.072;2022-10-31T17:36:12;16.60;99.90
33717;DHT22;20046;50.746;7.072;2022-10-31T17:38:38;16.50;99.90
33717;DHT22;20046;50.746;7.072;2022-10-31T17:41:05;16.50;99.90
33717;DHT22;20046;50.746;7.072;2022-10-31T17:43:31;16.50;99.90
33717;DHT22;20046;50.746;7.072;2022-10-31T17:45:58;16.50;99.90
33717;DHT22;20046;50.746;7.072;2022-10-31T17:48:25;16.40;99.90
33717;DHT22;20046;50.746;7.072;2022-10-31T17:50:50;16.40;99.90
33717;DHT22;20046;50.746;7.072;2022-10-31T17:53:16;16.30;99.90
33717;DHT22;20046;50.746;7.072;2022-10-31T17:55:42;16.30;99.90
33717;DHT22;20046;50.746;7.072;2022-10-31T17:58:07;16.30;99.90
33717;DHT22;20046;50.746;7.072;2022-10-31T18:00:37;16.40;99.90
33717;DHT22;20046;50.746;7.072;2022-10-31T18:03:03;16.40;99.90
33717;DHT22;20046;50.746;7.072;2022-10-31T18:05:29;16.30;99.90
33717;DHT22;20046;50.746;7.072;2022-10-31T18:07:55;16.20;99.90
33717;DHT22;20046;50.746;7.072;2022-10-31T18:10:21;16.30;99.90
33717;DHT22;20046;50.746;7.072;2022-10-31T18:12:46;16.20;99.90